sensor_id;sensor_type;location;lat;lon;timestamp;pressure;altitude;pressure_sealevel;temperature;humidity
49055;BME280;35405;52.344;14.530;2024-01-27T00:02:03;101743.19;;;5.71;70.17
49055;BME280;35405;52.344;14.530;2024-01-27T00:04:28;101749.06;;;5.62;70.70
49055;BME280;35405;52.344;14.530;2024-01-27T00:06:53;101760.28;;;5.60;70.91
49055;BME280;35405;52.344;14.530;2024-01-27T00:09:18;101755.81;;;5.51;70.50
49055;BME280;35405;52.344;14.530;2024-01-27T00:11:44;101731.50;;;5.47;70.78
49055;BME280;35405;52.344;14.530;2024-01-27T00:14:09;101746.28;;;5.50;70.67
49055;BME280;35405;52.344;14.530;2024-01-27T00:16:34;101755.72;;;5.48;71.64
49055;BME280;35405;52.344;14.530;2024-01-27T00:18:59;101752.88;;;5.34;70.92
49055;BME280;35405;52.344;14.530;2024-01-27T00:21:24;101752.91;;;5.36;71.30
49055;BME280;35405;52.344;14.530;2024-01-27T00:23:50;101758.84;;;5.30;71.42
49055;BME280;35405;52.344;14.530;2024-01-27T00:26:15;101765.09;;;5.41;71.66
49055;BME280;35405;52.344;14.530;2024-01-27T00:28:40;101767.56;;;5.34;71.58
49055;BME280;35405;52.344;14.530;2024-01-27T00:31:05;101769.34;;;5.36;71.59
49055;BME280;35405;52.344;14.530;2024-01-27T00:33:30;101773.53;;;5.30;71.63
49055;BME280;35405;52.344;14.530;2024-01-27T00:35:56;101804.03;;;5.41;70.99
49055;BME280;35405;52.344;14.530;2024-01-27T00:38:21;101767.84;;;5.49;70.42
49055;BME280;35405;52.344;14.530;2024-01-27T00:40:46;101765.78;;;5.31;70.43
49055;BME280;35405;52.344;14.530;2024-01-27T00:43:11;101780.59;;;5.37;70.90
49055;BME280;35405;52.344;14.530;2024-01-27T00:45:36;101770.09;;;5.31;70.99
49055;BME280;35405;52.344;14.530;2024-01-27T00:48:02;101767.41;;;5.26;70.27
49055;BME280;35405;52.344;14.530;2024-01-27T00:50:27;101772.78;;;5.35;71.24
49055;BME280;35405;52.344;14.530;2024-01-27T00:52:52;101771.41;;;5.53;70.24
49055;BME280;35405;52.344;14.530;2024-01-27T00:55:18;101774.00;;;5.53;69.85
49055;BME280;35405;52.344;14.530;2024-01-27T00:57:43;101773.91;;;5.48;70.06
49055;BME280;35405;52.344;14.530;2024-01-27T01:00:08;101777.22;;;5.41;70.61
49055;BME280;35405;52.344;14.530;2024-01-27T01:02:34;101773.50;;;5.28;70.58
49055;BME280;35405;52.344;14.530;2024-01-27T01:05:00;101777.75;;;5.24;70.93
49055;BME280;35405;52.344;14.530;2024-01-27T01:07:25;101771.69;;;5.24;70.00
49055;BME280;35405;52.344;14.530;2024-01-27T01:09:51;101781.03;;;5.16;70.40
49055;BME280;35405;52.344;14.530;2024-01-27T01:12:16;101771.81;;;5.29;70.74
49055;BME280;35405;52.344;14.530;2024-01-27T01:14:41;101762.94;;;5.19;70.22
49055;BME280;35405;52.344;14.530;2024-01-27T01:17:07;101777.63;;;5.18;69.92
49055;BME280;35405;52.344;14.530;2024-01-27T01:19:32;101773.19;;;5.13;70.68
49055;BME280;35405;52.344;14.530;2024-01-27T01:21:57;101792.28;;;5.16;69.74
49055;BME280;35405;52.344;14.530;2024-01-27T01:24:22;101777.66;;;5.20;70.47
49055;BME280;35405;52.344;14.530;2024-01-27T01:26:47;101787.19;;;5.21;69.25
49055;BME280;35405;52.344;14.530;2024-01-27T01:29:13;101788.59;;;5.07;69.32
49055;BME280;35405;52.344;14.530;2024-01-27T01:31:40;101779.06;;;5.04;70.30
49055;BME280;35405;52.344;14.530;2024-01-27T01:34:06;101798.19;;;5.09;70.06
49055;BME280;35405;52.344;14.530;2024-01-27T01:36:31;101795.50;;;5.05;69.77
49055;BME280;35405;52.344;14.530;2024-01-27T01:38:56;101783.22;;;4.97;69.56
49055;BME280;35405;52.344;14.530;2024-01-27T01:41:21;101783.09;;;4.91;70.10
49055;BME280;35405;52.344;14.530;2024-01-27T01:43:46;101794.56;;;5.01;70.15
49055;BME280;35405;52.344;14.530;2024-01-27T01:46:12;101797.97;;;5.00;70.23
49055;BME280;35405;52.344;14.530;2024-01-27T01:48:37;101806.72;;;5.04;70.09
49055;BME280;35405;52.344;14.530;2024-01-27T01:51:02;101803.16;;;5.00;69.96
49055;BME280;35405;52.344;14.530;2024-01-27T01:53:28;101810.06;;;5.00;69.70
49055;BME280;35405;52.344;14.530;2024-01-27T01:55:53;101809.16;;;4.97;70.01
49055;BME280;35405;52.344;14.530;2024-01-27T01:58:18;101803.97;;;4.97;70.13
49055;BME280;35405;52.344;14.530;2024-01-27T02:00:44;101813.44;;;4.94;70.56
49055;BME280;35405;52.344;14.530;2024-01-27T02:03:12;101814.28;;;4.94;69.87
49055;BME280;35405;52.344;14.530;2024-01-27T02:05:38;101816.59;;;4.82;70.14
49055;BME280;35405;52.344;14.530;2024-01-27T02:08:03;101822.69;;;4.84;70.33
49055;BME280;35405;52.344;14.530;2024-01-27T02:10:29;101812.41;;;4.87;69.52
49055;BME280;35405;52.344;14.530;2024-01-27T02:13:01;101820.78;;;4.76;69.54
49055;BME280;35405;52.344;14.530;2024-01-27T02:15:26;101807.75;;;4.73;70.66
49055;BME280;35405;52.344;14.530;2024-01-27T02:17:51;101828.56;;;4.77;70.52
49055;BME280;35405;52.344;14.530;2024-01-27T02:20:16;101829.56;;;4.82;70.30
49055;BME280;35405;52.344;14.530;2024-01-27T02:22:41;101831.25;;;4.80;70.23
49055;BME280;35405;52.344;14.530;2024-01-27T02:25:07;101839.94;;;4.82;70.33
49055;BME280;35405;52.344;14.530;2024-01-27T02:27:32;101836.44;;;4.80;70.66
49055;BME280;35405;52.344;14.530;2024-01-27T02:29:57;101838.09;;;4.78;70.32
49055;BME280;35405;52.344;14.530;2024-01-27T02:32:23;101842.66;;;4.87;69.60
49055;BME280;35405;52.344;14.530;2024-01-27T02:34:48;101838.41;;;4.90;70.06
49055;BME280;35405;52.344;14.530;2024-01-27T02:37:13;101834.97;;;4.93;69.28
49055;BME280;35405;52.344;14.530;2024-01-27T02:39:39;101855.78;;;4.94;69.39
49055;BME280;35405;52.344;14.530;2024-01-27T02:42:05;101862.72;;;4.95;68.71
49055;BME280;35405;52.344;14.530;2024-01-27T02:44:30;101860.28;;;5.02;68.62
49055;BME280;35405;52.344;14.530;2024-01-27T02:46:55;101856.84;;;5.03;68.46
49055;BME280;35405;52.344;14.530;2024-01-27T02:49:20;101871.75;;;5.13;68.11
49055;BME280;35405;52.344;14.530;2024-01-27T02:51:46;101874.44;;;5.16;67.42
49055;BME280;35405;52.344;14.530;2024-01-27T02:54:12;101886.41;;;5.11;68.02
49055;BME280;35405;52.344;14.530;2024-01-27T02:56:38;101883.09;;;5.16;67.93
49055;BME280;35405;52.344;14.530;2024-01-27T02:59:03;101869.31;;;5.20;67.02
49055;BME280;35405;52.344;14.530;2024-01-27T03:01:29;101884.03;;;5.20;67.16
49055;BME280;35405;52.344;14.530;2024-01-27T03:03:54;101879.97;;;5.31;66.90
49055;BME280;35405;52.344;14.530;2024-01-27T03:06:19;101897.72;;;5.52;66.11
49055;BME280;35405;52.344;14.530;2024-01-27T03:08:44;101906.06;;;5.39;65.71
49055;BME280;35405;52.344;14.530;2024-01-27T03:11:10;101899.03;;;5.33;66.20
49055;BME280;35405;52.344;14.530;2024-01-27T03:13:35;101897.28;;;5.32;66.81
49055;BME280;35405;52.344;14.530;2024-01-27T03:16:01;101904.31;;;5.38;66.18
49055;BME280;35405;52.344;14.530;2024-01-27T03:18:26;101906.03;;;5.36;66.59
49055;BME280;35405;52.344;14.530;2024-01-27T03:20:51;101915.72;;;5.44;66.22
49055;BME280;35405;52.344;14.530;2024-01-27T03:23:16;101905.38;;;5.46;65.97
49055;BME280;35405;52.344;14.530;2024-01-27T03:25:42;101917.38;;;5.42;66.45
49055;BME280;35405;52.344;14.530;2024-01-27T03:28:07;101921.66;;;5.40;66.83
49055;BME280;35405;52.344;14.530;2024-01-27T03:30:32;101929.59;;;5.46;66.86
49055;BME280;35405;52.344;14.530;2024-01-27T03:32:57;101939.09;;;5.44;66.73
49055;BME280;35405;52.344;14.530;2024-01-27T03:35:23;101946.91;;;5.47;67.18
49055;BME280;35405;52.344;14.530;2024-01-27T03:37:48;101943.47;;;5.48;66.49
49055;BME280;35405;52.344;14.530;2024-01-27T03:40:14;101930.59;;;5.51;67.29
49055;BME280;35405;52.344;14.530;2024-01-27T03:42:39;101948.81;;;5.55;66.17
49055;BME280;35405;52.344;14.530;2024-01-27T03:45:04;101932.31;;;5.51;66.35
49055;BME280;35405;52.344;14.530;2024-01-27T03:47:30;101936.56;;;5.49;66.62
49055;BME280;35405;52.344;14.530;2024-01-27T03:49:55;101946.91;;;5.47;66.65
49055;BME280;35405;52.344;14.530;2024-01-27T03:52:20;101954.41;;;5.35;67.52
49055;BME280;35405;52.344;14.530;2024-01-27T03:54:45;101952.66;;;5.34;68.22
49055;BME280;35405;52.344;14.530;2024-01-27T03:57:11;101949.13;;;5.29;67.71
49055;BME280;35405;52.344;14.530;2024-01-27T03:59:36;101940.25;;;5.21;67.93
49055;BME280;35405;52.344;14.530;2024-01-27T04:02:01;101945.19;;;5.10;68.74
49055;BME280;35405;52.344;14.530;2024-01-27T04:04:26;101945.94;;;5.05;68.28
49055;BME280;35405;52.344;14.530;2024-01-27T04:06:52;101945.78;;;4.99;69.36
49055;BME280;35405;52.344;14.530;2024-01-27T04:09:17;101948.38;;;4.99;69.20
49055;BME280;35405;52.344;14.530;2024-01-27T04:11:43;101967.53;;;5.04;68.87
49055;BME280;35405;52.344;14.530;2024-01-27T04:14:08;101967.53;;;5.04;nan
49055;BME280;35405;52.344;14.530;2024-01-27T04:16:33;101965.69;;;5.00;69.14
49055;BME280;35405;52.344;14.530;2024-01-27T04:18:59;101971.75;;;5.00;69.64
49055;BME280;35405;52.344;14.530;2024-01-27T04:21:24;101969.06;;;4.95;69.36
49055;BME280;35405;52.344;14.530;2024-01-27T04:23:49;101973.41;;;4.96;69.88
49055;BME280;35405;52.344;14.530;2024-01-27T04:26:14;101963.84;;;4.94;70.13
49055;BME280;35405;52.344;14.530;2024-01-27T04:28:39;101987.03;;;4.89;69.87
49055;BME280;35405;52.344;14.530;2024-01-27T04:31:05;101993.28;;;4.96;70.12
49055;BME280;35405;52.344;14.530;2024-01-27T04:33:30;101983.31;;;5.14;69.42
49055;BME280;35405;52.344;14.530;2024-01-27T04:35:55;101993.47;;;5.04;69.10
49055;BME280;35405;52.344;14.530;2024-01-27T04:38:21;102002.06;;;5.01;69.92
49055;BME280;35405;52.344;14.530;2024-01-27T04:40:46;101997.97;;;5.11;69.40
49055;BME280;35405;52.344;14.530;2024-01-27T04:43:18;101974.72;;;5.15;69.38
49055;BME280;35405;52.344;14.530;2024-01-27T04:45:43;102004.50;;;5.31;68.41
49055;BME280;35405;52.344;14.530;2024-01-27T04:48:09;102006.31;;;5.35;68.58
49055;BME280;35405;52.344;14.530;2024-01-27T04:50:34;102002.81;;;5.33;68.00
49055;BME280;35405;52.344;14.530;2024-01-27T04:52:59;101992.28;;;5.27;69.00
49055;BME280;35405;52.344;14.530;2024-01-27T04:55:25;102012.97;;;5.22;68.41
49055;BME280;35405;52.344;14.530;2024-01-27T04:57:50;102023.25;;;5.19;68.61
49055;BME280;35405;52.344;14.530;2024-01-27T05:00:15;102013.16;;;5.30;69.42
49055;BME280;35405;52.344;14.530;2024-01-27T05:02:41;102020.09;;;5.31;68.83
49055;BME280;35405;52.344;14.530;2024-01-27T05:05:07;102004.41;;;5.28;68.46
49055;BME280;35405;52.344;14.530;2024-01-27T05:07:32;102044.69;;;5.47;67.94
49055;BME280;35405;52.344;14.530;2024-01-27T05:09:57;102016.00;;;5.42;68.70
49055;BME280;35405;52.344;14.530;2024-01-27T05:12:22;102018.66;;;5.44;68.69
49055;BME280;35405;52.344;14.530;2024-01-27T05:14:48;102033.25;;;5.39;69.22
49055;BME280;35405;52.344;14.530;2024-01-27T05:17:13;102028.09;;;5.40;68.79
49055;BME280;35405;52.344;14.530;2024-01-27T05:19:38;102043.81;;;5.46;68.73
49055;BME280;35405;52.344;14.530;2024-01-27T05:22:03;102048.28;;;5.52;68.44
49055;BME280;35405;52.344;14.530;2024-01-27T05:24:29;102039.00;;;5.27;69.22
49055;BME280;35405;52.344;14.530;2024-01-27T05:26:54;102054.34;;;5.18;69.36
49055;BME280;35405;52.344;14.530;2024-01-27T05:29:19;102056.94;;;5.18;69.93
49055;BME280;35405;52.344;14.530;2024-01-27T05:31:44;102059.59;;;5.21;70.00
49055;BME280;35405;52.344;14.530;2024-01-27T05:34:10;102069.06;;;5.19;70.12
49055;BME280;35405;52.344;14.530;2024-01-27T05:36:35;102073.25;;;5.14;70.05
49055;BME280;35405;52.344;14.530;2024-01-27T05:39:01;102080.78;;;5.03;70.78
49055;BME280;35405;52.344;14.530;2024-01-27T05:41:28;102076.72;;;5.14;71.17
49055;BME280;35405;52.344;14.530;2024-01-27T05:43:53;102091.38;;;5.12;70.81
49055;BME280;35405;52.344;14.530;2024-01-27T05:46:19;102100.03;;;5.13;71.37
49055;BME280;35405;52.344;14.530;2024-01-27T05:48:44;102082.88;;;5.18;70.72
49055;BME280;35405;52.344;14.530;2024-01-27T05:51:09;102078.44;;;5.14;70.14
49055;BME280;35405;52.344;14.530;2024-01-27T05:53:35;102092.09;;;5.07;70.49
49055;BME280;35405;52.344;14.530;2024-01-27T05:56:00;102076.97;;;5.23;70.65
49055;BME280;35405;52.344;14.530;2024-01-27T05:58:25;102089.91;;;5.22;70.71
49055;BME280;35405;52.344;14.530;2024-01-27T06:00:51;102096.16;;;5.29;69.81
49055;BME280;35405;52.344;14.530;2024-01-27T06:03:16;102088.06;;;5.18;70.52
49055;BME280;35405;52.344;14.530;2024-01-27T06:05:42;102105.25;;;5.14;70.63
49055;BME280;35405;52.344;14.530;2024-01-27T06:08:07;102096.59;;;5.14;70.90
49055;BME280;35405;52.344;14.530;2024-01-27T06:10:33;102102.47;;;5.07;71.19
49055;BME280;35405;52.344;14.530;2024-01-27T06:12:58;102084.25;;;5.04;71.75
49055;BME280;35405;52.344;14.530;2024-01-27T06:15:24;102089.34;;;5.01;71.58
49055;BME280;35405;52.344;14.530;2024-01-27T06:17:57;102107.25;;;4.91;71.66
49055;BME280;35405;52.344;14.530;2024-01-27T06:20:22;102098.69;;;4.94;71.90
49055;BME280;35405;52.344;14.530;2024-01-27T06:22:54;102111.72;;;4.97;72.40
49055;BME280;35405;52.344;14.530;2024-01-27T06:25:20;102119.09;;;4.82;71.95
49055;BME280;35405;52.344;14.530;2024-01-27T06:27:45;102126.16;;;4.87;72.80
49055;BME280;35405;52.344;14.530;2024-01-27T06:30:11;102114.03;;;4.86;72.67
49055;BME280;35405;52.344;14.530;2024-01-27T06:32:44;102137.38;;;4.86;72.79
49055;BME280;35405;52.344;14.530;2024-01-27T06:35:18;102133.66;;;4.78;72.85
49055;BME280;35405;52.344;14.530;2024-01-27T06:37:43;102135.50;;;4.81;72.75
49055;BME280;35405;52.344;14.530;2024-01-27T06:40:11;102146.84;;;4.86;72.92
49055;BME280;35405;52.344;14.530;2024-01-27T06:42:37;102137.06;;;4.76;72.65
49055;BME280;35405;52.344;14.530;2024-01-27T06:45:02;102140.16;;;4.64;73.60
49055;BME280;35405;52.344;14.530;2024-01-27T06:47:27;102150.16;;;4.80;73.13
49055;BME280;35405;52.344;14.530;2024-01-27T06:49:53;102151.00;;;4.79;73.67
49055;BME280;35405;52.344;14.530;2024-01-27T06:52:18;102149.03;;;4.72;73.49
49055;BME280;35405;52.344;14.530;2024-01-27T06:54:43;102152.47;;;4.71;74.12
49055;BME280;35405;52.344;14.530;2024-01-27T06:57:21;102160.97;;;4.65;73.70
49055;BME280;35405;52.344;14.530;2024-01-27T06:59:47;102152.66;;;4.77;73.85
49055;BME280;35405;52.344;14.530;2024-01-27T07:02:17;102155.84;;;4.67;74.25
49055;BME280;35405;52.344;14.530;2024-01-27T07:04:42;102166.00;;;4.61;74.27
49055;BME280;35405;52.344;14.530;2024-01-27T07:07:10;102161.91;;;4.67;74.47
49055;BME280;35405;52.344;14.530;2024-01-27T07:09:35;102165.53;;;4.74;74.11
49055;BME280;35405;52.344;14.530;2024-01-27T07:12:01;102163.47;;;4.62;74.23
49055;BME280;35405;52.344;14.530;2024-01-27T07:14:26;102181.88;;;4.72;74.59
49055;BME280;35405;52.344;14.530;2024-01-27T07:16:51;102175.94;;;4.76;74.17
49055;BME280;35405;52.344;14.530;2024-01-27T07:19:16;102183.69;;;4.74;74.66
49055;BME280;35405;52.344;14.530;2024-01-27T07:21:41;102181.28;;;4.80;74.82
49055;BME280;35405;52.344;14.530;2024-01-27T07:24:07;102182.00;;;4.76;74.58
49055;BME280;35405;52.344;14.530;2024-01-27T07:26:32;102182.28;;;4.85;74.79
49055;BME280;35405;52.344;14.530;2024-01-27T07:28:57;102204.72;;;4.85;74.51
49055;BME280;35405;52.344;14.530;2024-01-27T07:31:22;102201.22;;;4.83;74.60
49055;BME280;35405;52.344;14.530;2024-01-27T07:33:49;102217.69;;;4.85;74.87
49055;BME280;35405;52.344;14.530;2024-01-27T07:36:14;102211.09;;;4.94;75.07
49055;BME280;35405;52.344;14.530;2024-01-27T07:38:39;102218.75;;;4.91;74.76
49055;BME280;35405;52.344;14.530;2024-01-27T07:41:04;102223.97;;;4.93;74.31
49055;BME280;35405;52.344;14.530;2024-01-27T07:43:30;102207.00;;;5.03;75.05
49055;BME280;35405;52.344;14.530;2024-01-27T07:45:55;102211.41;;;5.07;74.65
49055;BME280;35405;52.344;14.530;2024-01-27T07:48:20;102208.09;;;5.11;73.94
49055;BME280;35405;52.344;14.530;2024-01-27T07:50:46;102209.19;;;5.20;74.28
49055;BME280;35405;52.344;14.530;2024-01-27T07:53:13;102219.59;;;5.20;73.72
49055;BME280;35405;52.344;14.530;2024-01-27T07:55:39;102223.13;;;5.22;73.56
49055;BME280;35405;52.344;14.530;2024-01-27T07:58:04;102225.09;;;5.31;74.09
49055;BME280;35405;52.344;14.530;2024-01-27T08:00:30;102220.81;;;5.33;73.41
49055;BME280;35405;52.344;14.530;2024-01-27T08:02:56;102233.91;;;5.38;73.20
49055;BME280;35405;52.344;14.530;2024-01-27T08:05:24;102220.97;;;5.39;73.24
49055;BME280;35405;52.344;14.530;2024-01-27T08:07:49;102227.97;;;5.42;73.07
49055;BME280;35405;52.344;14.530;2024-01-27T08:10:14;102234.53;;;5.61;72.36
49055;BME280;35405;52.344;14.530;2024-01-27T08:12:40;102258.06;;;5.67;72.98
49055;BME280;35405;52.344;14.530;2024-01-27T08:15:05;102247.00;;;5.74;72.82
49055;BME280;35405;52.344;14.530;2024-01-27T08:17:31;102256.72;;;5.81;72.65
49055;BME280;35405;52.344;14.530;2024-01-27T08:19:56;102233.47;;;5.86;72.06
49055;BME280;35405;52.344;14.530;2024-01-27T08:22:21;102244.28;;;6.01;71.29
49055;BME280;35405;52.344;14.530;2024-01-27T08:24:46;102255.41;;;5.97;71.52
49055;BME280;35405;52.344;14.530;2024-01-27T08:27:12;102265.53;;;5.88;71.71
49055;BME280;35405;52.344;14.530;2024-01-27T08:29:37;102262.94;;;5.88;71.83
49055;BME280;35405;52.344;14.530;2024-01-27T08:32:02;102257.56;;;5.80;72.13
49055;BME280;35405;52.344;14.530;2024-01-27T08:34:27;102269.47;;;5.72;71.92
49055;BME280;35405;52.344;14.530;2024-01-27T08:36:53;102268.72;;;5.77;72.08
49055;BME280;35405;52.344;14.530;2024-01-27T08:39:19;102281.16;;;5.89;72.61
49055;BME280;35405;52.344;14.530;2024-01-27T08:41:44;102274.56;;;6.00;71.67
49055;BME280;35405;52.344;14.530;2024-01-27T08:44:10;102282.53;;;6.07;71.80
49055;BME280;35405;52.344;14.530;2024-01-27T08:46:35;102287.59;;;6.02;71.69
49055;BME280;35405;52.344;14.530;2024-01-27T08:49:01;102260.75;;;6.01;71.24
49055;BME280;35405;52.344;14.530;2024-01-27T08:51:26;102280.63;;;5.99;71.38
49055;BME280;35405;52.344;14.530;2024-01-27T08:53:51;102283.22;;;5.99;72.41
49055;BME280;35405;52.344;14.530;2024-01-27T08:56:16;102287.59;;;6.02;71.74
49055;BME280;35405;52.344;14.530;2024-01-27T08:58:43;102282.78;;;6.17;71.47
49055;BME280;35405;52.344;14.530;2024-01-27T09:01:09;102283.88;;;6.27;71.18
49055;BME280;35405;52.344;14.530;2024-01-27T09:03:34;102290.06;;;6.32;70.66
49055;BME280;35405;52.344;14.530;2024-01-27T09:06:00;102290.06;;;6.32;71.16
49055;BME280;35405;52.344;14.530;2024-01-27T09:08:25;102296.47;;;6.45;70.31
49055;BME280;35405;52.344;14.530;2024-01-27T09:10:50;102296.19;;;6.34;70.33
49055;BME280;35405;52.344;14.530;2024-01-27T09:13:16;102305.66;;;6.32;71.02
49055;BME280;35405;52.344;14.530;2024-01-27T09:15:41;102307.53;;;6.38;70.88
49055;BME280;35405;52.344;14.530;2024-01-27T09:18:06;102317.38;;;6.49;70.07
49055;BME280;35405;52.344;14.530;2024-01-27T09:20:31;102315.72;;;6.53;69.20
49055;BME280;35405;52.344;14.530;2024-01-27T09:22:57;102313.28;;;6.60;70.58
49055;BME280;35405;52.344;14.530;2024-01-27T09:25:22;102325.63;;;6.69;70.36
49055;BME280;35405;52.344;14.530;2024-01-27T09:27:49;102324.13;;;6.77;70.18
49055;BME280;35405;52.344;14.530;2024-01-27T09:30:14;102318.25;;;6.87;69.96
49055;BME280;35405;52.344;14.530;2024-01-27T09:32:40;102331.75;;;7.09;68.80
49055;BME280;35405;52.344;14.530;2024-01-27T09:35:05;102330.81;;;7.05;68.94
49055;BME280;35405;52.344;14.530;2024-01-27T09:37:46;102329.16;;;7.09;68.89
49055;BME280;35405;52.344;14.530;2024-01-27T09:40:11;102332.75;;;7.15;68.97
49055;BME280;35405;52.344;14.530;2024-01-27T09:42:37;102344.94;;;7.16;68.33
49055;BME280;35405;52.344;14.530;2024-01-27T09:45:04;102352.13;;;7.28;68.12
49055;BME280;35405;52.344;14.530;2024-01-27T09:47:29;102350.59;;;7.38;67.92
49055;BME280;35405;52.344;14.530;2024-01-27T09:49:55;102353.31;;;7.42;67.82
49055;BME280;35405;52.344;14.530;2024-01-27T09:52:20;102351.69;;;7.48;67.89
49055;BME280;35405;52.344;14.530;2024-01-27T09:54:45;102368.28;;;7.53;67.33
49055;BME280;35405;52.344;14.530;2024-01-27T09:57:11;102360.53;;;7.56;67.51
49055;BME280;35405;52.344;14.530;2024-01-27T09:59:36;102367.31;;;7.48;66.81
49055;BME280;35405;52.344;14.530;2024-01-27T10:02:04;102365.63;;;7.51;66.81
49055;BME280;35405;52.344;14.530;2024-01-27T10:04:31;102354.34;;;7.51;67.02
49055;BME280;35405;52.344;14.530;2024-01-27T10:06:57;102353.66;;;7.59;67.20
49055;BME280;35405;52.344;14.530;2024-01-27T10:09:23;102360.66;;;7.62;66.29
49055;BME280;35405;52.344;14.530;2024-01-27T10:11:48;102366.91;;;7.70;66.61
49055;BME280;35405;52.344;14.530;2024-01-27T10:14:16;102366.06;;;7.72;66.28
49055;BME280;35405;52.344;14.530;2024-01-27T10:16:42;102359.13;;;7.71;65.05
49055;BME280;35405;52.344;14.530;2024-01-27T10:19:08;102353.66;;;7.59;65.99
49055;BME280;35405;52.344;14.530;2024-01-27T10:21:37;102364.38;;;7.75;66.19
49055;BME280;35405;52.344;14.530;2024-01-27T10:24:02;102366.94;;;7.73;65.98
49055;BME280;35405;52.344;14.530;2024-01-27T10:26:31;102364.63;;;7.87;66.11
49055;BME280;35405;52.344;14.530;2024-01-27T10:28:57;102363.28;;;8.09;66.34
49055;BME280;35405;52.344;14.530;2024-01-27T10:31:26;102381.41;;;8.01;65.32
49055;BME280;35405;52.344;14.530;2024-01-27T10:33:51;102374.47;;;8.02;65.94
49055;BME280;35405;52.344;14.530;2024-01-27T10:36:41;102377.03;;;8.00;65.28
49055;BME280;35405;52.344;14.530;2024-01-27T10:39:16;102377.03;;;8.00;64.69
49055;BME280;35405;52.344;14.530;2024-01-27T10:41:41;102386.88;;;8.15;65.41
49055;BME280;35405;52.344;14.530;2024-01-27T10:44:08;102390.28;;;8.11;65.28
49055;BME280;35405;52.344;14.530;2024-01-27T10:46:34;102369.47;;;8.14;65.40
49055;BME280;35405;52.344;14.530;2024-01-27T10:49:00;102393.81;;;8.13;64.09
49055;BME280;35405;52.344;14.530;2024-01-27T10:51:30;102379.34;;;7.83;64.12
49055;BME280;35405;52.344;14.530;2024-01-27T10:53:57;102393.25;;;7.84;65.05
49055;BME280;35405;52.344;14.530;2024-01-27T10:56:25;102400.53;;;8.02;64.94
49055;BME280;35405;52.344;14.530;2024-01-27T10:58:52;102395.53;;;8.12;64.57
49055;BME280;35405;52.344;14.530;2024-01-27T11:01:17;102398.19;;;8.15;64.15
49055;BME280;35405;52.344;14.530;2024-01-27T11:03:44;102402.63;;;8.19;64.52
49055;BME280;35405;52.344;14.530;2024-01-27T11:06:09;102394.69;;;8.15;64.18
49055;BME280;35405;52.344;14.530;2024-01-27T11:08:37;102394.78;;;8.19;63.77
49055;BME280;35405;52.344;14.530;2024-01-27T11:11:03;102395.66;;;8.18;63.16
49055;BME280;35405;52.344;14.530;2024-01-27T11:13:28;102384.28;;;8.16;63.78
49055;BME280;35405;52.344;14.530;2024-01-27T11:15:55;102386.94;;;8.18;63.70
49055;BME280;35405;52.344;14.530;2024-01-27T11:18:20;102398.00;;;8.06;64.52
49055;BME280;35405;52.344;14.530;2024-01-27T11:20:46;102401.66;;;8.16;64.40
49055;BME280;35405;52.344;14.530;2024-01-27T11:23:12;102416.84;;;8.35;64.94
49055;BME280;35405;52.344;14.530;2024-01-27T11:25:39;102411.88;;;8.49;63.77
49055;BME280;35405;52.344;14.530;2024-01-27T11:28:15;102421.53;;;8.53;63.71
49055;BME280;35405;52.344;14.530;2024-01-27T11:30:47;102419.69;;;8.49;63.71
49055;BME280;35405;52.344;14.530;2024-01-27T11:33:12;102420.66;;;8.54;63.32
49055;BME280;35405;52.344;14.530;2024-01-27T11:35:38;102420.66;;;8.54;63.65
49055;BME280;35405;52.344;14.530;2024-01-27T11:38:03;102418.13;;;8.59;63.12
49055;BME280;35405;52.344;14.530;2024-01-27T11:40:28;102425.69;;;8.45;63.02
49055;BME280;35405;52.344;14.530;2024-01-27T11:42:58;102427.88;;;8.23;63.79
49055;BME280;35405;52.344;14.530;2024-01-27T11:45:23;102426.78;;;8.11;63.91
49055;BME280;35405;52.344;14.530;2024-01-27T11:47:49;102428.06;;;8.33;63.79
49055;BME280;35405;52.344;14.530;2024-01-27T11:50:14;102437.69;;;8.35;63.88
49055;BME280;35405;52.344;14.530;2024-01-27T11:52:41;102435.47;;;8.57;63.51
49055;BME280;35405;52.344;14.530;2024-01-27T11:55:07;102443.28;;;8.53;64.01
49055;BME280;35405;52.344;14.530;2024-01-27T11:57:32;102429.28;;;8.50;63.57
49055;BME280;35405;52.344;14.530;2024-01-27T11:59:57;102443.34;;;8.60;63.47
49055;BME280;35405;52.344;14.530;2024-01-27T12:02:22;102455.53;;;8.59;63.20
49055;BME280;35405;52.344;14.530;2024-01-27T12:04:48;102444.16;;;8.54;62.69
49055;BME280;35405;52.344;14.530;2024-01-27T12:07:16;102444.19;;;8.57;62.67
49055;BME280;35405;52.344;14.530;2024-01-27T12:09:45;102454.38;;;8.45;63.29
49055;BME280;35405;52.344;14.530;2024-01-27T12:12:10;102453.41;;;8.38;63.11
49055;BME280;35405;52.344;14.530;2024-01-27T12:14:40;102455.19;;;8.41;62.44
49055;BME280;35405;52.344;14.530;2024-01-27T12:17:08;102467.19;;;8.33;63.05
49055;BME280;35405;52.344;14.530;2024-01-27T12:19:33;102467.28;;;8.37;62.96
49055;BME280;35405;52.344;14.530;2024-01-27T12:21:58;102472.41;;;8.33;63.32
49055;BME280;35405;52.344;14.530;2024-01-27T12:24:23;102472.66;;;8.45;62.50
49055;BME280;35405;52.344;14.530;2024-01-27T12:26:48;102480.63;;;8.52;63.28
49055;BME280;35405;52.344;14.530;2024-01-27T12:29:14;102466.88;;;8.61;62.79
49055;BME280;35405;52.344;14.530;2024-01-27T12:31:39;102476.47;;;8.62;63.21
49055;BME280;35405;52.344;14.530;2024-01-27T12:34:04;102477.31;;;8.61;62.59
49055;BME280;35405;52.344;14.530;2024-01-27T12:36:30;102472.00;;;8.57;63.20
49055;BME280;35405;52.344;14.530;2024-01-27T12:38:59;102477.31;;;8.61;62.41
49055;BME280;35405;52.344;14.530;2024-01-27T12:41:25;102472.25;;;8.70;62.35
49055;BME280;35405;52.344;14.530;2024-01-27T12:43:51;102485.44;;;8.78;61.84